Time;durP1;ratioP1;P1;durP2;ratioP2;P2;SDS_P1;SDS_P2;PMS_P1;PMS_P2;Temp;Humidity;BMP_temperature;BMP_pressure;BME280_temperature;BME280_humidity;BME280_pressure;Samples;Min_cycle;Max_cycle;Signal;HPM_P1;HPM_P2
2021/08/11 00:01:49;;;;;;;252.85;20.80;;;;;;;;;;4955054;28;20525;-63
2021/08/11 00:04:35;;;;;;;162.45;14.75;;;;;;;;;;4950029;28;20142;-63
2021/08/11 00:07:20;;;;;;;78.28;13.07;;;;;;;;;;4956766;28;20051;-62
2021/08/11 00:10:06;;;;;;;299.90;19.70;;;;;;;;;;4956609;28;20134;-64
2021/08/11 00:12:52;;;;;;;79.68;11.02;;;;;;;;;;4956640;28;20657;-62
2021/08/11 00:15:37;;;;;;;240.20;21.42;;;;;;;;;;4950535;29;20183;-63
2021/08/11 00:18:22;;;;;;;99.60;12.70;;;;;;;;;;4956701;28;20055;-63
2021/08/11 00:21:08;;;;;;;24.33;14.07;;;;;;;;;;4956688;28;20059;-62
2021/08/11 00:23:53;;;;;;;23.17;12.90;;;;;;;;;;4955005;28;20055;-62
2021/08/11 00:26:38;;;;;;;17.65;11.88;;;;;;;;;;4955910;28;20548;-62
2021/08/11 00:29:24;;;;;;;29.77;14.82;;;;;;;;;;4956453;28;20051;-63
2021/08/11 00:32:10;;;;;;;72.97;11.27;;;;;;;;;;4956310;28;20059;-62
2021/08/11 00:34:55;;;;;;;50.22;10.18;;;;;;;;;;4955017;28;20055;-63
2021/08/11 00:37:40;;;;;;;19.35;7.88;;;;;;;;;;4968993;28;20422;-63
2021/08/11 00:40:27;;;;;;;13.75;10.15;;;;;;;;;;4955136;29;20051;-62
2021/08/11 00:43:13;;;;;;;129.90;8.65;;;;;;;;;;4954874;28;20486;-63
2021/08/11 00:46:03;;;;;;;22.67;7.40;;;;;;;;;;4966273;28;20472;-62
2021/08/11 00:48:48;;;;;;;13.73;9.88;;;;;;;;;;4968551;28;20517;-62
2021/08/11 00:51:37;;;;;;;21.98;13.00;;;;;;;;;;4968388;28;20044;-62
2021/08/11 00:54:23;;;;;;;28.70;13.65;;;;;;;;;;4968133;28;20506;-63
2021/08/11 00:57:10;;;;;;;29.77;17.27;;;;;;;;;;4967697;28;20043;-63
2021/08/11 00:59:56;;;;;;;29.63;16.27;;;;;;;;;;4954897;28;20051;-62
2021/08/11 01:02:42;;;;;;;47.65;18.35;;;;;;;;;;4935583;29;20043;-62
2021/08/11 01:05:27;;;;;;;31.75;18.55;;;;;;;;;;4939039;29;20501;-63
2021/08/11 01:08:14;;;;;;;94.40;20.60;;;;;;;;;;4953447;28;20074;-63
2021/08/11 01:11:00;;;;;;;139.77;14.68;;;;;;;;;;4967907;28;20179;-63
2021/08/11 01:13:45;;;;;;;43.80;16.48;;;;;;;;;;4954498;28;20078;-62
2021/08/11 01:16:32;;;;;;;44.28;19.17;;;;;;;;;;4952313;28;20078;-62
2021/08/11 01:19:20;;;;;;;31.42;18.98;;;;;;;;;;4968043;28;20061;-62
2021/08/11 01:22:15;;;;;;;217.00;24.02;;;;;;;;;;4961540;28;20114;-63
2021/08/11 01:25:20;;;;;;;128.50;26.23;;;;;;;;;;4948720;29;20062;-62
2021/08/11 01:28:12;;;;;;;178.25;25.95;;;;;;;;;;4916210;29;20516;-63
2021/08/11 01:31:05;;;;;;;274.92;29.08;;;;;;;;;;4915861;29;20103;-63
2021/08/11 01:33:50;;;;;;;;;;;;;;;;;;4916051;29;20052;-63
2021/08/11 01:36:40;;;;;;;24.52;17.08;;;;;;;;;;4940546;28;19929;-63
2021/08/11 01:39:29;;;;;;;192.35;32.30;;;;;;;;;;4967535;28;20417;-63
2021/08/11 01:42:19;;;;;;;91.90;27.95;;;;;;;;;;4954260;28;20046;-62
2021/08/11 01:45:05;;;;;;;711.38;43.38;;;;;;;;;;4967348;28;20098;-62
2021/08/11 01:47:55;;;;;;;493.75;31.38;;;;;;;;;;4951349;29;20590;-63
2021/08/11 01:50:44;;;;;;;305.83;21.40;;;;;;;;;;4953877;28;20414;-63
2021/08/11 01:53:32;;;;;;;278.63;19.83;;;;;;;;;;4950060;28;20098;-63
2021/08/11 01:56:22;;;;;;;362.40;23.90;;;;;;;;;;4954327;28;20055;-63
2021/08/11 01:59:10;;;;;;;220.77;19.25;;;;;;;;;;4947449;29;20080;-63
2021/08/11 02:01:57;;;;;;;140.98;17.30;;;;;;;;;;4934395;29;20399;-62
2021/08/11 02:04:42;;;;;;;267.67;27.35;;;;;;;;;;4934420;29;20074;-63
2021/08/11 02:07:27;;;;;;;212.52;26.70;;;;;;;;;;4933733;29;20054;-62
2021/08/11 02:10:14;;;;;;;178.40;28.27;;;;;;;;;;4934197;29;20052;-62
2021/08/11 02:13:01;;;;;;;236.02;30.05;;;;;;;;;;4935673;29;20047;-63
2021/08/11 02:15:49;;;;;;;87.32;28.95;;;;;;;;;;4947782;29;20052;-63
2021/08/11 02:18:38;;;;;;;75.63;19.98;;;;;;;;;;4951331;29;20050;-62
2021/08/11 02:21:24;;;;;;;106.00;18.70;;;;;;;;;;4953285;29;20186;-62
2021/08/11 02:24:10;;;;;;;74.15;23.00;;;;;;;;;;4966657;28;20043;-62
2021/08/11 02:26:58;;;;;;;58.70;22.13;;;;;;;;;;4965477;28;20046;-62
2021/08/11 02:29:49;;;;;;;311.90;21.35;;;;;;;;;;4952443;28;20043;-63
2021/08/11 02:32:39;;;;;;;71.57;20.35;;;;;;;;;;4937771;29;20148;-62
2021/08/11 02:35:38;;;;;;;41.80;22.45;;;;;;;;;;4933793;29;20051;-62
2021/08/11 02:38:31;;;;;;;34.58;21.08;;;;;;;;;;4944963;28;20055;-63
2021/08/11 02:41:18;;;;;;;42.55;22.98;;;;;;;;;;4952887;28;20158;-63
2021/08/11 02:44:23;;;;;;;41.00;23.58;;;;;;;;;;4966313;28;20090;-63
2021/08/11 02:47:09;;;;;;;42.97;23.05;;;;;;;;;;4966017;28;20458;-65
2021/08/11 02:49:54;;;;;;;45.92;25.33;;;;;;;;;;4933155;29;20502;-62
2021/08/11 02:52:39;;;;;;;53.70;25.85;;;;;;;;;;4950410;29;20059;-62
2021/08/11 02:55:25;;;;;;;42.80;24.38;;;;;;;;;;4966352;28;20050;-62
2021/08/11 02:58:10;;;;;;;57.45;28.42;;;;;;;;;;4964876;28;20122;-63
2021/08/11 03:00:56;;;;;;;54.25;28.30;;;;;;;;;;4952150;28;20048;-65
2021/08/11 03:03:42;;;;;;;69.07;30.88;;;;;;;;;;4951988;28;20047;-62
2021/08/11 03:06:28;;;;;;;64.22;30.15;;;;;;;;;;4943405;29;20048;-63
2021/08/11 03:09:14;;;;;;;59.00;27.73;;;;;;;;;;4959635;28;20058;-64
2021/08/11 03:12:00;;;;;;;83.03;26.73;;;;;;;;;;4970200;28;20053;-62
2021/08/11 03:14:46;;;;;;;64.28;27.63;;;;;;;;;;4970085;28;20137;-64
2021/08/11 03:17:31;;;;;;;51.20;26.10;;;;;;;;;;4970332;28;20406;-63
2021/08/11 03:20:17;;;;;;;47.90;23.15;;;;;;;;;;4953717;29;20126;-64
2021/08/11 03:23:03;;;;;;;53.85;26.65;;;;;;;;;;4969924;28;20048;-64
2021/08/11 03:25:48;;;;;;;42.10;23.55;;;;;;;;;;4970104;28;20051;-64
2021/08/11 03:28:34;;;;;;;42.67;24.50;;;;;;;;;;4970348;28;20125;-62
2021/08/11 03:31:19;;;;;;;46.20;24.92;;;;;;;;;;4969905;28;20129;-64
2021/08/11 03:34:04;;;;;;;52.35;28.55;;;;;;;;;;4957017;28;20039;-63
2021/08/11 03:36:51;;;;;;;53.28;28.88;;;;;;;;;;4957390;28;20051;-63
2021/08/11 03:39:37;;;;;;;58.38;29.92;;;;;;;;;;4955519;28;20629;-63
2021/08/11 03:42:22;;;;;;;49.30;27.08;;;;;;;;;;4954566;29;20181;-62
2021/08/11 03:45:08;;;;;;;52.95;29.05;;;;;;;;;;4969685;28;20066;-62
2021/08/11 03:47:57;;;;;;;51.13;29.35;;;;;;;;;;4956057;29;20052;-63
2021/08/11 03:50:43;;;;;;;52.75;28.80;;;;;;;;;;4967692;28;20062;-63
2021/08/11 03:53:28;;;;;;;50.33;28.33;;;;;;;;;;4956414;28;20055;-63
2021/08/11 03:56:14;;;;;;;56.25;29.85;;;;;;;;;;4969598;28;20469;-62
2021/08/11 03:59:01;;;;;;;51.72;29.38;;;;;;;;;;4969521;28;20053;-63
2021/08/11 04:01:47;;;;;;;51.20;27.83;;;;;;;;;;5009446;22;20126;-62
2021/08/11 04:04:33;;;;;;;43.33;25.92;;;;;;;;;;4956591;28;20044;-62
2021/08/11 04:07:19;;;;;;;45.20;26.63;;;;;;;;;;4956521;28;20118;-62
2021/08/11 04:10:05;;;;;;;46.03;27.60;;;;;;;;;;4956896;28;20047;-62
2021/08/11 04:12:50;;;;;;;48.00;27.38;;;;;;;;;;4954743;29;20058;-62
2021/08/11 04:15:35;;;;;;;50.33;29.65;;;;;;;;;;4956453;28;20042;-62
2021/08/11 04:18:21;;;;;;;42.30;29.15;;;;;;;;;;4956804;28;20043;-62
2021/08/11 04:21:06;;;;;;;39.40;28.33;;;;;;;;;;4960649;28;20121;-62
2021/08/11 04:23:51;;;;;;;46.75;29.35;;;;;;;;;;4974696;28;20047;-62
2021/08/11 04:26:37;;;;;;;38.10;26.00;;;;;;;;;;4975957;28;20161;-62
2021/08/11 04:29:22;;;;;;;42.10;25.80;;;;;;;;;;4975851;28;20053;-62
2021/08/11 04:32:08;;;;;;;49.28;27.73;;;;;;;;;;4974732;28;20407;-62
2021/08/11 04:34:53;;;;;;;40.55;25.10;;;;;;;;;;4974706;28;20186;-64
2021/08/11 04:37:39;;;;;;;39.67;24.05;;;;;;;;;;4975645;28;20051;-64
2021/08/11 04:40:24;;;;;;;35.97;23.08;;;;;;;;;;4975565;28;20049;-64
2021/08/11 04:43:09;;;;;;;41.08;24.48;;;;;;;;;;4974870;28;20687;-64
2021/08/11 04:45:55;;;;;;;34.35;22.58;;;;;;;;;;4975733;28;20058;-64
2021/08/11 04:48:40;;;;;;;28.35;20.30;;;;;;;;;;4975334;28;20113;-64
2021/08/11 04:51:26;;;;;;;31.38;21.10;;;;;;;;;;4975390;28;20062;-64
2021/08/11 04:54:11;;;;;;;35.30;23.02;;;;;;;;;;4975239;28;20050;-64
2021/08/11 04:56:56;;;;;;;41.65;24.92;;;;;;;;;;4975082;28;20043;-64
2021/08/11 04:59:42;;;;;;;36.40;21.55;;;;;;;;;;4975553;28;20043;-64
2021/08/11 05:02:28;;;;;;;33.63;21.77;;;;;;;;;;4973787;28;20055;-64
2021/08/11 05:05:13;;;;;;;32.53;20.60;;;;;;;;;;4973503;28;20049;-64
2021/08/11 05:07:59;;;;;;;31.50;21.50;;;;;;;;;;4975257;28;20061;-64
2021/08/11 05:10:44;;;;;;;34.53;21.05;;;;;;;;;;4975180;28;20134;-64
2021/08/11 05:13:29;;;;;;;33.47;21.67;;;;;;;;;;4973598;28;20069;-64
2021/08/11 05:16:15;;;;;;;31.13;20.48;;;;;;;;;;4974136;28;20042;-64
2021/08/11 05:19:00;;;;;;;29.85;19.35;;;;;;;;;;4974507;28;20130;-65
2021/08/11 05:21:46;;;;;;;27.75;19.30;;;;;;;;;;4974693;28;20062;-65
2021/08/11 05:24:31;;;;;;;25.65;18.35;;;;;;;;;;4973118;28;20046;-65
2021/08/11 05:27:16;;;;;;;33.15;20.92;;;;;;;;;;4974639;28;20050;-65
2021/08/11 05:30:02;;;;;;;27.92;20.02;;;;;;;;;;4973982;28;20050;-65
2021/08/11 05:32:47;;;;;;;28.25;20.52;;;;;;;;;;4974250;28;20046;-65
2021/08/11 05:35:33;;;;;;;30.63;21.92;;;;;;;;;;4973872;28;20042;-65
2021/08/11 05:38:18;;;;;;;30.95;21.92;;;;;;;;;;4974309;28;20436;-65
2021/08/11 05:41:03;;;;;;;37.08;21.25;;;;;;;;;;4974207;28;20055;-65
2021/08/11 05:43:49;;;;;;;35.45;23.17;;;;;;;;;;4973204;28;20111;-65
2021/08/11 05:46:34;;;;;;;28.27;20.33;;;;;;;;;;4973749;28;20043;-65
2021/08/11 05:49:20;;;;;;;34.83;22.70;;;;;;;;;;4974230;28;20513;-65
2021/08/11 05:52:06;;;;;;;25.85;19.27;;;;;;;;;;4974136;28;20051;-65
2021/08/11 05:54:53;;;;;;;26.17;20.63;;;;;;;;;;4973349;28;20137;-65
2021/08/11 05:57:39;;;;;;;31.00;21.00;;;;;;;;;;4974071;28;20043;-65
2021/08/11 06:00:27;;;;;;;27.52;21.63;;;;;;;;;;4972802;28;20206;-65
2021/08/11 06:03:13;;;;;;;28.02;20.70;;;;;;;;;;4954800;28;20043;-65
2021/08/11 06:06:12;;;;;;;33.85;21.58;;;;;;;;;;4953777;29;20043;-65
2021/08/11 06:08:57;;;;;;;31.73;22.40;;;;;;;;;;4954771;28;20047;-65
2021/08/11 06:11:42;;;;;;;28.83;20.98;;;;;;;;;;4961227;28;20114;-65
2021/08/11 06:14:28;;;;;;;28.85;20.85;;;;;;;;;;4973466;28;20489;-65
2021/08/11 06:17:13;;;;;;;29.70;22.00;;;;;;;;;;4974030;28;20098;-65
2021/08/11 06:20:00;;;;;;;26.67;19.55;;;;;;;;;;4973699;28;20159;-65
2021/08/11 06:22:45;;;;;;;22.38;18.23;;;;;;;;;;4971823;28;20190;-65
2021/08/11 06:25:30;;;;;;;25.25;20.15;;;;;;;;;;4972699;28;20046;-65
2021/08/11 06:28:16;;;;;;;25.13;20.70;;;;;;;;;;4973662;28;20054;-65
2021/08/11 06:31:02;;;;;;;24.63;20.42;;;;;;;;;;4973250;28;20057;-65
2021/08/11 06:33:47;;;;;;;20.52;16.05;;;;;;;;;;4972008;28;20047;-65
2021/08/11 06:36:33;;;;;;;19.20;16.15;;;;;;;;;;4973408;28;20047;-65
2021/08/11 06:39:18;;;;;;;19.92;16.40;;;;;;;;;;4973311;28;20047;-65
2021/08/11 06:42:04;;;;;;;20.58;16.45;;;;;;;;;;4971471;28;20047;-65
2021/08/11 06:45:25;;;;;;;19.98;16.20;;;;;;;;;;4973501;28;20054;-65
2021/08/11 06:48:10;;;;;;;19.90;15.18;;;;;;;;;;4972569;28;20122;-65
2021/08/11 06:50:56;;;;;;;16.13;14.32;;;;;;;;;;4972344;28;20050;-65
2021/08/11 06:53:41;;;;;;;21.33;14.63;;;;;;;;;;4972015;28;20047;-65
2021/08/11 06:56:27;;;;;;;21.30;15.02;;;;;;;;;;4973111;28;20070;-65
2021/08/11 06:59:12;;;;;;;16.38;14.00;;;;;;;;;;4973283;28;20134;-65
2021/08/11 07:01:59;;;;;;;14.52;12.32;;;;;;;;;;4970997;28;20054;-65
2021/08/11 07:04:45;;;;;;;16.45;12.20;;;;;;;;;;4972344;28;20560;-65
2021/08/11 07:07:30;;;;;;;13.82;11.43;;;;;;;;;;4973318;28;20098;-65
2021/08/11 07:10:16;;;;;;;14.98;11.27;;;;;;;;;;4972248;28;20051;-65
2021/08/11 07:13:01;;;;;;;15.27;10.85;;;;;;;;;;4953331;28;20194;-65
2021/08/11 07:15:46;;;;;;;15.38;10.80;;;;;;;;;;4953799;28;20044;-65
2021/08/11 07:18:32;;;;;;;13.70;12.30;;;;;;;;;;4953848;28;20151;-65
2021/08/11 07:21:18;;;;;;;13.38;9.43;;;;;;;;;;4958424;28;20511;-65
2021/08/11 07:24:03;;;;;;;13.10;10.25;;;;;;;;;;4971380;28;20051;-65
2021/08/11 07:26:49;;;;;;;10.65;9.52;;;;;;;;;;4973004;28;20049;-66
2021/08/11 07:29:34;;;;;;;10.35;8.52;;;;;;;;;;4972916;28;20054;-65
2021/08/11 07:32:20;;;;;;;13.45;8.38;;;;;;;;;;4971750;28;20050;-65
2021/08/11 07:35:05;;;;;;;12.80;8.93;;;;;;;;;;4972661;28;20050;-65
2021/08/11 07:37:51;;;;;;;11.63;9.35;;;;;;;;;;4971668;28;20043;-65
2021/08/11 07:40:38;;;;;;;17.77;9.57;;;;;;;;;;4968386;28;20082;-65
2021/08/11 07:43:23;;;;;;;11.45;7.68;;;;;;;;;;4971425;28;20054;-66
2021/08/11 07:46:09;;;;;;;13.43;8.55;;;;;;;;;;4971406;28;20524;-66
2021/08/11 07:48:54;;;;;;;10.00;8.60;;;;;;;;;;4972567;28;20424;-66
2021/08/11 07:51:40;;;;;;;11.15;8.18;;;;;;;;;;4971518;28;20412;-65
2021/08/11 07:54:25;;;;;;;10.20;8.38;;;;;;;;;;4974848;28;20412;-66
2021/08/11 07:57:10;;;;;;;10.63;9.15;;;;;;;;;;4976307;28;20050;-65
2021/08/11 07:59:56;;;;;;;10.18;7.75;;;;;;;;;;4976240;28;20050;-64
2021/08/11 08:02:41;;;;;;;12.38;8.13;;;;;;;;;;4974717;28;20130;-65
2021/08/11 08:05:27;;;;;;;8.93;7.45;;;;;;;;;;4976047;28;20059;-65
2021/08/11 08:08:12;;;;;;;10.60;7.97;;;;;;;;;;4976235;28;20424;-65
2021/08/11 08:10:58;;;;;;;9.73;7.32;;;;;;;;;;4974719;28;20117;-66
2021/08/11 08:13:45;;;;;;;12.23;8.27;;;;;;;;;;4974460;28;20502;-65
2021/08/11 08:16:31;;;;;;;10.23;7.18;;;;;;;;;;4975952;28;20058;-66
2021/08/11 08:19:16;;;;;;;12.60;8.70;;;;;;;;;;4974870;28;20051;-66
2021/08/11 08:22:02;;;;;;;11.43;7.80;;;;;;;;;;4973754;28;20053;-63
2021/08/11 08:24:47;;;;;;;10.82;7.55;;;;;;;;;;4968653;28;20047;-63
2021/08/11 08:27:32;;;;;;;10.23;6.78;;;;;;;;;;4967082;28;20058;-63
2021/08/11 08:30:18;;;;;;;9.82;6.95;;;;;;;;;;4966780;28;20414;-63
2021/08/11 08:33:03;;;;;;;11.93;7.05;;;;;;;;;;4966958;28;20049;-63
2021/08/11 08:35:49;;;;;;;8.95;6.68;;;;;;;;;;4966383;28;20050;-63
2021/08/11 08:38:34;;;;;;;10.98;7.38;;;;;;;;;;4966898;28;20050;-63
2021/08/11 08:41:19;;;;;;;11.48;7.40;;;;;;;;;;4967070;28;20187;-63
2021/08/11 08:44:05;;;;;;;13.85;7.93;;;;;;;;;;4969335;28;20082;-63
2021/08/11 08:46:52;;;;;;;9.63;6.63;;;;;;;;;;4966259;28;20117;-63
2021/08/11 08:49:38;;;;;;;9.23;6.88;;;;;;;;;;4966216;28;20053;-64
2021/08/11 08:52:23;;;;;;;7.72;6.80;;;;;;;;;;4964596;28;20043;-63
2021/08/11 08:55:09;;;;;;;7.82;7.00;;;;;;;;;;4965148;28;20541;-64
2021/08/11 08:57:54;;;;;;;9.45;6.80;;;;;;;;;;4966203;28;20046;-64
2021/08/11 09:00:39;;;;;;;9.82;6.82;;;;;;;;;;4965975;28;20045;-63
2021/08/11 09:03:25;;;;;;;10.57;6.57;;;;;;;;;;4966625;28;20053;-63
2021/08/11 09:06:11;;;;;;;9.25;6.60;;;;;;;;;;4964872;28;20481;-63
2021/08/11 09:09:07;;;;;;;11.45;6.55;;;;;;;;;;4963877;28;20050;-63
2021/08/11 09:11:52;;;;;;;9.25;6.80;;;;;;;;;;4995228;28;20054;-63
2021/08/11 09:14:38;;;;;;;9.63;6.72;;;;;;;;;;4993577;28;20161;-63
2021/08/11 09:17:35;;;;;;;9.18;5.93;;;;;;;;;;4973594;28;20042;-65
2021/08/11 09:20:23;;;;;;;8.55;6.03;;;;;;;;;;4973129;28;20049;-65
2021/08/11 09:23:09;;;;;;;8.20;6.50;;;;;;;;;;4970921;28;20061;-65
2021/08/11 09:25:56;;;;;;;9.57;5.72;;;;;;;;;;4974060;28;20074;-66
2021/08/11 09:28:43;;;;;;;9.43;6.03;;;;;;;;;;4973242;28;20066;-66
2021/08/11 09:31:30;;;;;;;9.82;6.70;;;;;;;;;;4974492;28;20127;-66
2021/08/11 09:34:15;;;;;;;10.00;6.15;;;;;;;;;;4971552;28;20156;-66
2021/08/11 09:37:00;;;;;;;10.13;7.00;;;;;;;;;;4965202;28;20047;-64
2021/08/11 09:39:45;;;;;;;8.43;5.82;;;;;;;;;;4973234;28;20497;-64
2021/08/11 09:42:31;;;;;;;7.85;5.47;;;;;;;;;;4972121;28;20042;-63
2021/08/11 09:45:16;;;;;;;9.15;5.93;;;;;;;;;;4972449;28;20557;-64
2021/08/11 09:48:03;;;;;;;7.57;5.85;;;;;;;;;;4974172;28;20417;-64
2021/08/11 09:50:53;;;;;;;9.75;6.78;;;;;;;;;;4969037;28;20061;-64
2021/08/11 09:53:41;;;;;;;8.20;6.18;;;;;;;;;;4954632;28;20047;-63
2021/08/11 09:56:33;;;;;;;9.82;5.63;;;;;;;;;;4954907;28;20055;-64
2021/08/11 09:59:18;;;;;;;6.75;4.95;;;;;;;;;;4954695;28;20080;-64
2021/08/11 10:02:16;;;;;;;8.02;5.78;;;;;;;;;;4998445;28;20189;-63
2021/08/11 10:05:02;;;;;;;9.65;5.43;;;;;;;;;;4973958;28;20489;-63
2021/08/11 10:07:54;;;;;;;10.35;4.97;;;;;;;;;;4974272;28;20062;-63
2021/08/11 10:10:46;;;;;;;7.83;3.93;;;;;;;;;;4973171;28;20039;-62
2021/08/11 10:13:32;;;;;;;7.07;4.70;;;;;;;;;;4973514;28;20170;-63
2021/08/11 10:16:18;;;;;;;5.85;4.30;;;;;;;;;;4972571;28;20043;-63
2021/08/11 10:19:04;;;;;;;5.75;4.63;;;;;;;;;;4973891;28;20421;-63
2021/08/11 10:21:49;;;;;;;7.63;4.43;;;;;;;;;;4980903;28;20058;-63
2021/08/11 10:24:35;;;;;;;6.57;4.45;;;;;;;;;;4972169;28;20480;-63
2021/08/11 10:27:20;;;;;;;4.85;3.40;;;;;;;;;;4972485;28;20043;-63
2021/08/11 10:30:06;;;;;;;6.95;4.10;;;;;;;;;;4972534;28;20047;-63
2021/08/11 10:32:51;;;;;;;7.50;4.53;;;;;;;;;;4971581;28;20683;-63
2021/08/11 10:35:36;;;;;;;6.75;4.13;;;;;;;;;;4972324;28;20514;-63
2021/08/11 10:38:21;;;;;;;7.00;3.70;;;;;;;;;;4969912;28;20167;-62
2021/08/11 10:41:07;;;;;;;7.63;4.75;;;;;;;;;;4973010;28;20065;-62
2021/08/11 10:43:52;;;;;;;6.55;4.10;;;;;;;;;;4952630;28;20517;-62
2021/08/11 10:46:38;;;;;;;4.25;2.85;;;;;;;;;;4966938;28;20057;-62
2021/08/11 10:49:27;;;;;;;7.80;3.83;;;;;;;;;;4972051;28;20049;-62
2021/08/11 10:52:13;;;;;;;6.88;3.70;;;;;;;;;;4970821;28;20073;-61
2021/08/11 10:54:59;;;;;;;5.38;3.10;;;;;;;;;;4973023;28;20055;-62
2021/08/11 10:57:45;;;;;;;4.65;3.58;;;;;;;;;;4972910;28;20521;-62
2021/08/11 11:00:30;;;;;;;5.22;3.97;;;;;;;;;;4971835;28;20045;-63
2021/08/11 11:03:35;;;;;;;10.68;4.30;;;;;;;;;;4973180;28;20379;-64
2021/08/11 11:06:20;;;;;;;5.00;3.35;;;;;;;;;;4972650;28;20049;-62
2021/08/11 11:09:19;;;;;;;7.13;3.95;;;;;;;;;;4973048;28;20051;-62
2021/08/11 11:12:17;;;;;;;5.20;3.92;;;;;;;;;;4971943;28;20417;-63
2021/08/11 11:15:02;;;;;;;5.15;3.35;;;;;;;;;;4972811;28;20053;-61
2021/08/11 11:18:06;;;;;;;5.60;3.40;;;;;;;;;;4973055;28;20113;-62
2021/08/11 11:20:57;;;;;;;4.50;3.25;;;;;;;;;;4972294;28;20073;-62
2021/08/11 11:23:43;;;;;;;3.65;2.38;;;;;;;;;;4972525;28;20054;-63
2021/08/11 11:26:32;;;;;;;5.63;2.83;;;;;;;;;;4971301;28;20062;-62
2021/08/11 11:29:19;;;;;;;5.07;3.20;;;;;;;;;;4974932;28;20510;-63
2021/08/11 11:32:05;;;;;;;4.03;2.65;;;;;;;;;;5001841;28;20412;-63
2021/08/11 11:34:51;;;;;;;3.70;2.90;;;;;;;;;;5000497;28;20043;-63
2021/08/11 11:37:36;;;;;;;6.30;2.95;;;;;;;;;;4975494;28;20054;-63
2021/08/11 11:40:22;;;;;;;2.78;2.38;;;;;;;;;;4975653;28;20051;-63
2021/08/11 11:43:26;;;;;;;4.18;2.47;;;;;;;;;;4975621;28;20057;-63
2021/08/11 11:46:11;;;;;;;7.03;2.63;;;;;;;;;;4975356;28;20057;-62
2021/08/11 11:49:15;;;;;;;4.30;2.53;;;;;;;;;;4975013;28;20528;-64
2021/08/11 11:52:00;;;;;;;3.65;2.30;;;;;;;;;;4975514;28;20039;-64
2021/08/11 11:54:46;;;;;;;5.72;2.70;;;;;;;;;;4975204;28;20049;-65
2021/08/11 11:57:31;;;;;;;6.47;3.00;;;;;;;;;;4976572;28;20048;-63
2021/08/11 12:00:17;;;;;;;4.13;1.83;;;;;;;;;;4975275;28;20556;-63
2021/08/11 12:03:02;;;;;;;7.35;2.45;;;;;;;;;;4975318;28;20170;-63
2021/08/11 12:05:48;;;;;;;3.22;1.75;;;;;;;;;;4975972;28;20471;-62
2021/08/11 12:08:33;;;;;;;3.15;2.63;;;;;;;;;;4976172;28;20050;-63
2021/08/11 12:11:19;;;;;;;3.03;2.40;;;;;;;;;;4976649;28;20059;-63
2021/08/11 12:14:05;;;;;;;4.35;2.78;;;;;;;;;;5001949;28;20046;-63
2021/08/11 12:16:50;;;;;;;3.70;2.10;;;;;;;;;;4976551;28;20441;-64
2021/08/11 12:19:35;;;;;;;4.10;2.72;;;;;;;;;;4976571;28;20055;-64
2021/08/11 12:22:30;;;;;;;2.35;1.90;;;;;;;;;;4975813;28;20045;-63
2021/08/11 12:25:21;;;;;;;3.33;2.20;;;;;;;;;;4975597;28;20121;-63
2021/08/11 12:28:07;;;;;;;3.73;2.30;;;;;;;;;;4975915;28;20125;-63
2021/08/11 12:30:59;;;;;;;3.38;2.08;;;;;;;;;;4975575;28;20293;-63
2021/08/11 12:33:45;;;;;;;3.05;2.38;;;;;;;;;;5000717;28;20121;-63
2021/08/11 12:36:31;;;;;;;3.40;2.13;;;;;;;;;;4975542;28;20173;-63
2021/08/11 12:39:18;;;;;;;3.45;2.67;;;;;;;;;;4975608;28;20053;-63
2021/08/11 12:42:03;;;;;;;4.07;2.47;;;;;;;;;;4975487;28;20050;-63
2021/08/11 12:44:55;;;;;;;3.38;2.17;;;;;;;;;;4974700;28;20065;-63
2021/08/11 12:47:40;;;;;;;2.30;1.70;;;;;;;;;;4975458;28;20062;-63
2021/08/11 12:50:25;;;;;;;4.85;2.00;;;;;;;;;;5001852;28;20059;-63
2021/08/11 12:53:10;;;;;;;2.38;1.83;;;;;;;;;;4975311;28;20050;-63
2021/08/11 12:56:08;;;;;;;3.58;2.30;;;;;;;;;;5000847;28;20046;-64
2021/08/11 12:59:00;;;;;;;4.75;2.55;;;;;;;;;;4975376;28;20057;-64
2021/08/11 13:01:46;;;;;;;3.67;2.25;;;;;;;;;;4974988;28;20538;-64
2021/08/11 13:04:32;;;;;;;5.13;1.67;;;;;;;;;;4974025;28;20043;-64
2021/08/11 13:07:17;;;;;;;3.03;2.00;;;;;;;;;;4975805;28;20098;-64
2021/08/11 13:10:15;;;;;;;3.95;2.17;;;;;;;;;;4974100;28;20053;-65
2021/08/11 13:13:02;;;;;;;3.22;2.30;;;;;;;;;;4974850;28;20039;-69
2021/08/11 13:15:47;;;;;;;2.75;2.00;;;;;;;;;;4973859;28;20524;-64
2021/08/11 13:18:32;;;;;;;4.25;2.63;;;;;;;;;;5001584;28;20055;-64
2021/08/11 13:21:17;;;;;;;3.30;2.40;;;;;;;;;;4976721;28;20058;-65
2021/08/11 13:24:03;;;;;;;4.40;2.22;;;;;;;;;;4977499;28;20094;-65
2021/08/11 13:26:49;;;;;;;4.00;1.83;;;;;;;;;;4976169;28;20074;-65
2021/08/11 13:29:35;;;;;;;2.70;2.25;;;;;;;;;;4975512;28;20050;-64
2021/08/11 13:32:21;;;;;;;4.05;1.73;;;;;;;;;;4976016;28;20046;-64
2021/08/11 13:35:07;;;;;;;2.20;1.50;;;;;;;;;;4976215;28;20205;-65
2021/08/11 13:37:52;;;;;;;3.20;2.00;;;;;;;;;;4957150;29;20058;-65
2021/08/11 13:40:38;;;;;;;4.20;2.15;;;;;;;;;;4955595;28;20051;-64
2021/08/11 13:43:23;;;;;;;2.40;2.05;;;;;;;;;;4955134;28;20053;-64
2021/08/11 13:46:08;;;;;;;2.75;1.92;;;;;;;;;;4967324;28;20046;-64
2021/08/11 13:48:54;;;;;;;2.15;1.70;;;;;;;;;;4972355;28;20504;-64
2021/08/11 13:51:39;;;;;;;2.88;1.80;;;;;;;;;;4972736;28;20049;-64
2021/08/11 13:54:25;;;;;;;2.78;1.50;;;;;;;;;;4973870;28;20049;-64
2021/08/11 13:57:10;;;;;;;3.10;1.70;;;;;;;;;;4974163;28;20057;-64
2021/08/11 13:59:56;;;;;;;2.28;1.20;;;;;;;;;;4973499;28;20070;-64
2021/08/11 14:02:42;;;;;;;3.05;1.80;;;;;;;;;;4973167;28;20401;-64
2021/08/11 14:05:27;;;;;;;3.78;1.55;;;;;;;;;;4973554;28;20043;-64
2021/08/11 14:08:13;;;;;;;2.40;1.38;;;;;;;;;;4975103;28;20440;-65
2021/08/11 14:10:58;;;;;;;4.20;2.03;;;;;;;;;;4975493;28;20065;-65
2021/08/11 14:13:44;;;;;;;1.88;1.17;;;;;;;;;;4975045;28;20046;-65
2021/08/11 14:16:29;;;;;;;4.13;1.70;;;;;;;;;;4974122;28;20057;-65
2021/08/11 14:19:14;;;;;;;3.35;1.27;;;;;;;;;;4974538;28;20058;-65
2021/08/11 14:22:00;;;;;;;1.88;1.33;;;;;;;;;;4968251;28;20046;-65
2021/08/11 14:24:45;;;;;;;3.53;1.42;;;;;;;;;;4971710;28;20057;-65
2021/08/11 14:27:31;;;;;;;2.53;1.35;;;;;;;;;;4973390;28;20039;-65
2021/08/11 14:30:16;;;;;;;2.83;1.67;;;;;;;;;;4973098;28;20043;-65
2021/08/11 14:33:01;;;;;;;3.13;1.60;;;;;;;;;;4973012;28;20074;-65
2021/08/11 14:35:47;;;;;;;2.15;1.60;;;;;;;;;;4971758;28;20673;-65
2021/08/11 14:38:33;;;;;;;4.03;2.08;;;;;;;;;;4973584;28;20057;-65
2021/08/11 14:41:18;;;;;;;2.08;1.45;;;;;;;;;;4974207;28;20504;-65
2021/08/11 14:44:04;;;;;;;2.25;1.30;;;;;;;;;;4974289;28;20128;-65
2021/08/11 14:46:49;;;;;;;2.90;1.80;;;;;;;;;;4971947;28;20057;-65
2021/08/11 14:49:35;;;;;;;4.03;1.75;;;;;;;;;;4973510;28;20118;-65
2021/08/11 14:52:20;;;;;;;1.67;1.58;;;;;;;;;;4973205;28;20061;-66
2021/08/11 14:55:06;;;;;;;2.92;1.55;;;;;;;;;;4973967;28;20050;-66
2021/08/11 14:57:52;;;;;;;7.05;1.70;;;;;;;;;;4974421;28;20058;-65
2021/08/11 15:00:38;;;;;;;2.35;1.85;;;;;;;;;;4972649;28;20541;-64
2021/08/11 15:03:23;;;;;;;3.17;1.98;;;;;;;;;;4973135;28;20049;-65
2021/08/11 15:06:09;;;;;;;2.30;1.92;;;;;;;;;;4976298;28;20178;-64
2021/08/11 15:08:54;;;;;;;2.78;1.60;;;;;;;;;;4975682;28;20129;-65
2021/08/11 15:11:39;;;;;;;3.03;1.63;;;;;;;;;;4976393;28;20578;-65
2021/08/11 15:14:25;;;;;;;2.72;2.10;;;;;;;;;;4976028;28;20046;-65
2021/08/11 15:17:12;;;;;;;2.95;2.10;;;;;;;;;;4976153;28;20102;-65
2021/08/11 15:19:57;;;;;;;3.78;1.92;;;;;;;;;;4975852;28;20532;-65
2021/08/11 15:22:43;;;;;;;2.28;1.95;;;;;;;;;;4976421;28;20045;-65
2021/08/11 15:25:29;;;;;;;4.85;2.50;;;;;;;;;;4976582;28;20053;-65
2021/08/11 15:28:14;;;;;;;6.05;2.90;;;;;;;;;;4975270;28;20174;-65
2021/08/11 15:30:59;;;;;;;3.97;2.28;;;;;;;;;;4956803;28;20093;-65
2021/08/11 15:33:45;;;;;;;2.72;1.83;;;;;;;;;;4955823;28;20058;-65
2021/08/11 15:36:31;;;;;;;3.53;2.25;;;;;;;;;;4955230;28;20051;-65
2021/08/11 15:39:17;;;;;;;2.22;2.03;;;;;;;;;;4961535;28;20058;-65
2021/08/11 15:42:02;;;;;;;4.10;2.20;;;;;;;;;;4975378;28;20065;-65
2021/08/11 15:44:48;;;;;;;3.55;2.22;;;;;;;;;;4976068;28;20053;-65
2021/08/11 15:47:34;;;;;;;4.03;2.40;;;;;;;;;;4976675;28;20412;-65
2021/08/11 15:50:20;;;;;;;3.55;2.15;;;;;;;;;;4973946;28;20050;-65
2021/08/11 15:53:05;;;;;;;3.45;1.95;;;;;;;;;;4975691;28;20201;-65
2021/08/11 15:55:51;;;;;;;2.38;2.05;;;;;;;;;;4975822;28;20564;-65
2021/08/11 15:58:36;;;;;;;3.78;2.33;;;;;;;;;;4976054;28;20057;-65
2021/08/11 16:01:22;;;;;;;3.63;2.17;;;;;;;;;;4974468;28;20058;-65
2021/08/11 16:04:07;;;;;;;6.20;2.10;;;;;;;;;;4975084;28;20051;-65
2021/08/11 16:06:53;;;;;;;2.83;2.08;;;;;;;;;;4975735;28;20137;-65
2021/08/11 16:09:38;;;;;;;2.58;1.88;;;;;;;;;;4973255;28;20684;-66
2021/08/11 16:12:23;;;;;;;2.67;1.80;;;;;;;;;;4973710;28;20112;-65
2021/08/11 16:15:09;;;;;;;2.75;2.08;;;;;;;;;;4974508;28;20470;-66
2021/08/11 16:17:54;;;;;;;2.78;2.22;;;;;;;;;;4975379;28;20050;-65
2021/08/11 16:20:40;;;;;;;3.58;1.90;;;;;;;;;;4975504;28;20425;-65
2021/08/11 16:23:27;;;;;;;2.30;1.98;;;;;;;;;;4974175;28;20524;-65
2021/08/11 16:26:16;;;;;;;2.63;2.22;;;;;;;;;;4975850;28;20058;-65